Vejr og vind

Viden om vejr og vind er en vigtig del af forberedelsen før enhver flyvning.
Herunder er vist links til sider om  vejr og vind og andre nyttige oplysninger.
Du kan finde information om det helt aktuelle vejr (METAR) og udsigt for de kommende timer (TAF) for åbne lufthavne.
I højre side vises informationer for Sindal = EKSN (i åbningstiden) og for Aalborg = EKYT (døgnåbent).

 

NorthAviMet (login: SULF & Sindal9394 )
Metar / taf oversætter
Vejret.info med oversætter (vælg sted under Danmark & Færøerne)
Earth Wind
Naviair: Digital indsendelse af ATS flyveplan
Naviair: NOTAM / SNOWTAM (vælg kode under By)
Naviair: PRD (skydeområder)
SkyVector
TAF Sindal (hvis aktiv)
EKSN" Sorry, either there are no data available for your request or you did not enter any valid ICAO airport abbreviations. See stations.txt for a list of known METAR and TAF locations. Then go back to the ADDS METARs or TAFs page and try again  Please try again and, if problems persist, then send mail to ncep.awc.adds@noaa.gov
TAF Aalborg
EKYT 211425Z 2115/2215 28010KT 9999 BKN010 BECMG 2115/2117 35008KT FEW030 SCT100 TEMPO 2121/2210 1200 BCFG BKN002 BECMG 2121/2124 VRB04KT BECMG 2209/2212 28010KT TEMPO 2210/2212 4000 BR -DZ BKN008